Time;durP1;ratioP1;P1;durP2;ratioP2;P2;SDS_P1;SDS_P2;PMS_P1;PMS_P2;Temp;Humidity;BMP_temperature;BMP_pressure;BME280_temperature;BME280_humidity;BME280_pressure;Samples;Min_cycle;Max_cycle;Signal;HPM_P1;HPM_P2
2023/05/02 00:00:31;;;;;;;0.40;0.40;;;;;;;15.87;41.30;99627.00;4436290;32;35864;-84
2023/05/02 00:03:00;;;;;;;0.40;0.40;;;;;;;16.15;40.80;99634.72;4429387;32;34628;-84
2023/05/02 00:05:30;;;;;;;0.40;0.40;;;;;;;16.12;40.86;99624.38;4440027;32;34350;-82
2023/05/02 00:07:59;;;;;;;0.40;0.40;;;;;;;16.14;40.98;99626.91;4436554;32;33505;-81
2023/05/02 00:10:28;;;;;;;0.50;0.50;;;;;;;15.90;41.87;99633.88;4433115;32;33944;-83
2023/05/02 00:12:56;;;;;;;1.08;1.08;;;;;;;16.19;41.44;99627.63;4440597;32;33931;-81
2023/05/02 00:15:27;;;;;;;0.40;0.40;;;;;;;16.18;40.71;99628.50;4440248;32;34057;-81
2023/05/02 00:17:56;;;;;;;0.50;0.50;;;;;;;16.17;41.00;99629.44;4435221;32;34268;-81
2023/05/02 00:20:25;;;;;;;0.40;0.40;;;;;;;16.28;40.78;99615.94;4431271;32;33649;-84
2023/05/02 00:22:55;;;;;;;0.50;0.50;;;;;;;15.72;40.83;99625.78;4429165;32;34171;-84
2023/05/02 00:25:24;;;;;;;0.50;0.50;;;;;;;15.53;40.08;99627.31;4429176;32;32966;-81
2023/05/02 00:27:52;;;;;;;0.40;0.40;;;;;;;16.24;39.52;99620.44;4434343;32;34432;-81
2023/05/02 00:30:21;;;;;;;0.40;0.40;;;;;;;16.21;39.49;99623.16;4443357;32;33496;-83
2023/05/02 00:32:53;;;;;;;0.40;0.40;;;;;;;16.02;39.00;99616.88;4446552;32;34807;-80
2023/05/02 00:35:21;;;;;;;0.40;0.40;;;;;;;16.21;39.24;99620.53;4435296;32;33135;-81
2023/05/02 00:37:50;;;;;;;0.40;0.40;;;;;;;16.39;38.92;99619.00;4445225;32;34236;-83
2023/05/02 00:40:20;;;;;;;0.50;0.50;;;;;;;16.28;39.70;99623.78;4446585;32;34958;-82
2023/05/02 00:42:48;;;;;;;0.40;0.40;;;;;;;16.21;39.58;99621.41;4435435;32;32929;-82
2023/05/02 00:45:17;;;;;;;0.40;0.40;;;;;;;16.39;38.41;99622.47;4436275;32;33979;-81
2023/05/02 00:47:46;;;;;;;0.47;0.47;;;;;;;16.40;38.43;99625.94;4430427;32;33926;-82
2023/05/02 00:50:17;;;;;;;0.40;0.40;;;;;;;16.35;38.58;99625.25;4442690;32;34183;-84
2023/05/02 00:52:46;;;;;;;0.52;0.52;;;;;;;16.36;38.66;99624.38;4446647;32;34535;-81
2023/05/02 00:55:15;;;;;;;0.52;0.52;;;;;;;16.34;38.76;99634.03;4439674;32;32859;-81
2023/05/02 00:57:44;;;;;;;0.45;0.45;;;;;;;16.31;39.11;99628.91;4428388;32;33427;-83
2023/05/02 01:00:13;;;;;;;0.40;0.40;;;;;;;15.98;40.11;99627.47;4430762;32;34725;-84
2023/05/02 01:02:48;;;;;;;0.50;0.50;;;;;;;16.23;39.64;99628.34;4436706;32;33027;-83
2023/05/02 01:05:21;;;;;;;0.40;0.40;;;;;;;16.28;39.53;99623.78;4429852;32;34162;-81
2023/05/02 01:08:07;;;;;;;0.50;0.50;;;;;;;16.04;39.81;99621.16;4431203;32;33958;-81
2023/05/02 01:10:48;;;;;;;0.40;0.40;;;;;;;16.01;39.51;99629.13;4429659;32;34068;-82
2023/05/02 01:13:20;;;;;;;0.40;0.40;;;;;;;16.06;39.40;99624.56;4437103;32;33519;-82
2023/05/02 01:15:51;;;;;;;0.40;0.40;;;;;;;15.93;39.82;99633.81;4434021;32;32571;-82
2023/05/02 01:18:25;;;;;;;0.65;0.65;;;;;;;16.13;39.21;99625.22;4438052;32;33127;-82
2023/05/02 01:21:00;;;;;;;0.80;0.75;;;;;;;16.09;38.85;99627.09;4442240;32;33786;-82
2023/05/02 01:23:39;;;;;;;0.40;0.40;;;;;;;16.24;39.43;99619.56;4430204;32;34811;-81
2023/05/02 01:26:30;;;;;;;0.40;0.40;;;;;;;16.18;40.07;99620.66;4429618;32;34035;-82
2023/05/02 01:29:00;;;;;;;;;;;;;;;16.32;39.71;99625.38;4435127;32;33960;-82
2023/05/02 01:31:35;;;;;;;1.40;1.30;;;;;;;15.92;40.74;99621.59;4432636;32;34139;-83
2023/05/02 01:34:05;;;;;;;0.50;0.50;;;;;;;16.18;39.77;99620.66;4432325;32;34170;-84
2023/05/02 01:36:39;;;;;;;1.35;1.00;;;;;;;16.14;39.94;99614.69;4432435;32;34240;-82
2023/05/02 01:39:09;;;;;;;0.50;0.50;;;;;;;15.93;39.78;99613.72;4430725;32;36338;-84
2023/05/02 01:41:39;;;;;;;0.40;0.40;;;;;;;15.94;39.43;99618.03;4434433;32;33758;-82
2023/05/02 01:44:10;;;;;;;0.55;0.55;;;;;;;16.18;39.34;99624.12;4429638;32;34816;-84
2023/05/02 01:46:40;;;;;;;0.47;0.47;;;;;;;16.08;39.78;99614.91;4432749;32;33807;-81
2023/05/02 01:49:10;;;;;;;0.37;0.37;;;;;;;15.83;40.82;99611.50;4430172;32;33414;-82
2023/05/02 01:51:44;;;;;;;0.40;0.40;;;;;;;15.92;40.00;99609.41;4429238;32;33601;-82
2023/05/02 01:54:14;;;;;;;0.40;0.40;;;;;;;16.16;39.96;99614.63;4433884;32;34453;-82
2023/05/02 01:56:44;;;;;;;0.40;0.40;;;;;;;16.24;39.94;99614.31;4430487;32;33294;-84
2023/05/02 01:59:16;;;;;;;0.40;0.40;;;;;;;16.10;40.23;99613.09;4436253;32;35107;-82
2023/05/02 02:01:46;;;;;;;0.40;0.40;;;;;;;16.02;40.54;99609.91;4442418;32;34092;-85
2023/05/02 02:04:15;;;;;;;0.77;0.77;;;;;;;15.73;41.09;99605.75;4439200;32;34828;-82
2023/05/02 02:06:48;;;;;;;0.40;0.40;;;;;;;15.82;40.79;99607.16;4429427;32;34208;-84
2023/05/02 02:09:17;;;;;;;0.40;0.40;;;;;;;15.95;40.41;99604.06;4429465;32;33545;-81
2023/05/02 02:11:51;;;;;;;0.40;0.40;;;;;;;15.81;40.77;99602.84;4436820;32;33678;-81
2023/05/02 02:14:24;;;;;;;0.40;0.40;;;;;;;15.88;40.77;99594.72;4433287;32;33623;-82
2023/05/02 02:16:55;;;;;;;2.08;0.85;;;;;;;15.76;41.45;99593.41;4442612;32;33282;-84
2023/05/02 02:19:24;;;;;;;;;;;;;;;15.54;41.95;99590.66;4429633;32;33472;-81
2023/05/02 02:21:55;;;;;;;0.40;0.40;;;;;;;15.63;41.77;99597.31;4430055;32;34441;-83
2023/05/02 02:24:24;;;;;;;0.52;0.52;;;;;;;15.58;41.37;99597.50;4429893;32;34628;-83
2023/05/02 02:26:54;;;;;;;2.35;0.73;;;;;;;15.64;41.64;99592.97;4435584;32;34020;-83
2023/05/02 02:29:25;;;;;;;0.50;0.50;;;;;;;15.54;42.44;99597.66;4436588;32;34490;-82
2023/05/02 02:31:53;;;;;;;0.40;0.40;;;;;;;15.62;42.13;99595.63;4430670;32;33395;-84
2023/05/02 02:34:22;;;;;;;0.95;0.95;;;;;;;15.61;42.84;99596.53;4428788;32;34553;-82
2023/05/02 02:36:55;;;;;;;0.40;0.40;;;;;;;15.48;42.45;99584.78;4434987;32;33247;-82
2023/05/02 02:39:35;;;;;;;0.40;0.40;;;;;;;15.57;42.88;99592.31;4445609;32;33535;-82
2023/05/02 02:42:12;;;;;;;0.60;0.60;;;;;;;15.26;43.38;99587.28;4429096;32;33960;-82
2023/05/02 02:44:49;;;;;;;0.82;0.60;;;;;;;15.41;43.34;99584.13;4429876;32;33679;-84
2023/05/02 02:47:24;;;;;;;0.80;0.80;;;;;;;15.32;43.21;99593.16;4443720;32;33512;-80
2023/05/02 02:50:11;;;;;;;0.40;0.40;;;;;;;15.05;44.12;99588.84;4435750;32;33521;-82
2023/05/02 02:52:50;;;;;;;0.52;0.52;;;;;;;15.19;43.71;99591.03;4430409;32;34974;-81
2023/05/02 02:55:24;;;;;;;0.60;0.60;;;;;;;15.23;43.69;99590.88;4434386;32;33475;-84
2023/05/02 02:57:59;;;;;;;0.50;0.50;;;;;;;15.06;44.46;99590.59;4429346;32;34289;-84
2023/05/02 03:00:31;;;;;;;0.50;0.50;;;;;;;15.23;44.25;99600.47;4430691;32;34269;-81
2023/05/02 03:03:00;;;;;;;0.50;0.50;;;;;;;15.41;44.04;99593.75;4428898;32;34410;-84
2023/05/02 03:05:30;;;;;;;0.50;0.50;;;;;;;15.08;44.87;99594.00;4433537;32;33940;-84
2023/05/02 03:07:59;;;;;;;0.50;0.50;;;;;;;15.23;44.13;99600.47;4441616;32;34015;-83
2023/05/02 03:10:28;;;;;;;0.40;0.40;;;;;;;14.98;45.00;99597.81;4442554;32;33581;-84
2023/05/02 03:12:57;;;;;;;1.27;1.17;;;;;;;15.11;44.86;99599.97;4438781;32;34099;-81
2023/05/02 03:15:56;;;;;;;0.82;0.70;;;;;;;15.00;45.36;99598.59;4430852;32;34144;-83
2023/05/02 03:18:26;;;;;;;0.60;0.60;;;;;;;15.17;45.38;99601.50;4432287;32;33531;-82
2023/05/02 03:20:54;;;;;;;0.50;0.50;;;;;;;15.04;45.47;99598.47;4434480;32;33305;-85
2023/05/02 03:23:23;;;;;;;0.40;0.40;;;;;;;14.91;45.78;99607.63;4435544;32;33203;-81
2023/05/02 03:25:52;;;;;;;0.55;0.55;;;;;;;15.31;45.15;99606.28;4448087;32;34462;-84
2023/05/02 03:28:21;;;;;;;0.60;0.60;;;;;;;15.33;45.06;99601.84;4446501;32;33660;-83
2023/05/02 03:30:52;;;;;;;1.12;1.12;;;;;;;15.16;45.50;99605.03;4438888;32;34024;-85
2023/05/02 03:33:21;;;;;;;0.50;0.50;;;;;;;15.34;45.06;99595.72;4438971;32;34430;-83
2023/05/02 03:35:50;;;;;;;0.50;0.50;;;;;;;15.24;45.09;99610.84;4436562;32;34929;-82
2023/05/02 03:38:19;;;;;;;0.47;0.47;;;;;;;15.23;45.50;99603.94;4436452;32;34058;-81
2023/05/02 03:40:48;;;;;;;0.50;0.50;;;;;;;15.45;44.69;99611.91;4439672;32;33715;-83
2023/05/02 03:43:21;;;;;;;0.50;0.50;;;;;;;14.96;45.94;99610.09;4438161;32;33807;-82
2023/05/02 03:45:51;;;;;;;0.70;0.70;;;;;;;15.25;45.66;99612.56;4438158;32;33746;-81
2023/05/02 03:48:20;;;;;;;0.50;0.50;;;;;;;15.09;46.27;99612.22;4440652;32;32979;-81
2023/05/02 03:50:51;;;;;;;0.73;0.68;;;;;;;15.34;46.09;99607.03;4435050;32;34593;-81
2023/05/02 03:53:19;;;;;;;0.40;0.40;;;;;;;15.23;46.34;99609.16;4438075;32;33732;-84
2023/05/02 03:55:49;;;;;;;0.50;0.50;;;;;;;15.23;46.55;99613.53;4434821;32;33829;-81
2023/05/02 03:58:18;;;;;;;0.60;0.60;;;;;;;15.28;46.54;99606.41;4432445;32;34057;-83
2023/05/02 04:00:47;;;;;;;0.40;0.40;;;;;;;14.89;47.23;99614.66;4436988;32;34249;-82
2023/05/02 04:03:18;;;;;;;0.40;0.40;;;;;;;15.10;46.56;99615.69;4446768;32;34439;-82
2023/05/02 04:05:46;;;;;;;0.47;0.47;;;;;;;15.06;46.85;99624.53;4433905;32;34339;-80
2023/05/02 04:08:16;;;;;;;0.95;0.60;;;;;;;15.18;46.29;99623.28;4433245;32;33371;-81
2023/05/02 04:10:45;;;;;;;0.40;0.40;;;;;;;15.17;46.53;99616.34;4433842;32;33726;-83
2023/05/02 04:13:14;;;;;;;0.40;0.40;;;;;;;14.56;47.34;99613.94;4448561;32;34504;-82
2023/05/02 04:15:45;;;;;;;0.50;0.50;;;;;;;15.07;46.31;99621.00;4437533;32;34471;-81
2023/05/02 04:18:14;;;;;;;;;;;;;;;15.03;46.70;99619.41;4432760;32;33971;-82
2023/05/02 04:20:44;;;;;;;0.50;0.50;;;;;;;14.78;46.95;99621.94;4430834;32;87506;-81
2023/05/02 04:23:14;;;;;;;;;;;;;;;15.28;46.20;99622.91;4432181;32;34913;-82
2023/05/02 04:25:51;;;;;;;0.50;0.50;;;;;;;15.30;46.35;99626.34;4441055;32;35193;-82
2023/05/02 04:28:20;;;;;;;0.73;0.73;;;;;;;15.51;46.25;99627.37;4442234;32;34247;-84
2023/05/02 04:30:50;;;;;;;0.52;0.52;;;;;;;15.40;46.41;99629.50;4448221;32;34658;-82
2023/05/02 04:33:19;;;;;;;2.47;1.50;;;;;;;15.77;44.88;99631.72;4435868;32;33860;-83
2023/05/02 04:35:55;;;;;;;0.52;0.52;;;;;;;16.19;44.63;99638.94;4430703;32;33798;-82
2023/05/02 04:38:25;;;;;;;1.12;1.12;;;;;;;17.17;42.99;99638.66;4443221;32;33948;-81
2023/05/02 04:40:54;;;;;;;0.50;0.50;;;;;;;18.02;41.58;99636.78;4434089;32;33579;-83
2023/05/02 04:43:24;;;;;;;0.50;0.50;;;;;;;17.97;41.39;99641.38;4430546;32;34248;-82
2023/05/02 04:45:53;;;;;;;0.40;0.40;;;;;;;17.86;41.25;99643.63;4440131;32;34119;-82
2023/05/02 04:48:24;;;;;;;0.40;0.40;;;;;;;17.87;41.33;99647.97;4443979;32;33530;-82
2023/05/02 04:50:54;;;;;;;0.88;0.88;;;;;;;17.88;41.19;99649.69;4434201;32;34435;-82
2023/05/02 04:53:24;;;;;;;0.47;0.47;;;;;;;18.40;40.80;99649.09;4432346;32;34445;-82
2023/05/02 04:55:53;;;;;;;0.70;0.70;;;;;;;18.82;40.15;99650.66;4432788;32;34086;-82
2023/05/02 04:58:22;;;;;;;0.55;0.43;;;;;;;18.84;38.98;99657.53;4429003;32;33848;-83
2023/05/02 05:00:52;;;;;;;0.40;0.40;;;;;;;18.60;39.63;99650.78;4437297;32;33561;-83
2023/05/02 05:03:20;;;;;;;0.40;0.40;;;;;;;19.43;38.33;99647.66;4437094;32;34471;-84
2023/05/02 05:05:49;;;;;;;0.62;0.57;;;;;;;19.34;38.40;99650.75;4436260;32;33459;-82
2023/05/02 05:08:20;;;;;;;0.30;0.30;;;;;;;18.70;39.35;99660.81;4439253;32;33907;-82
2023/05/02 05:10:49;;;;;;;0.50;0.50;;;;;;;19.18;38.88;99648.00;4438847;32;35012;-84
2023/05/02 05:13:18;;;;;;;2.05;0.40;;;;;;;19.30;38.96;99657.09;4439505;32;32830;-83
2023/05/02 05:15:47;;;;;;;0.40;0.40;;;;;;;19.06;39.48;99657.34;4438659;32;34171;-81
2023/05/02 05:18:17;;;;;;;0.35;0.35;;;;;;;19.39;38.77;99654.00;4433049;32;33975;-82
2023/05/02 05:20:46;;;;;;;0.43;0.43;;;;;;;19.87;38.34;99660.34;4438036;32;33552;-82
2023/05/02 05:23:17;;;;;;;0.60;0.60;;;;;;;19.83;38.36;99661.44;4448663;32;33593;-82
2023/05/02 05:25:47;;;;;;;0.30;0.30;;;;;;;20.11;38.24;99665.28;4447760;32;33828;-84
2023/05/02 05:28:17;;;;;;;0.40;0.40;;;;;;;19.70;38.28;99655.12;4435596;32;33726;-83
2023/05/02 05:30:46;;;;;;;0.30;0.30;;;;;;;19.55;38.09;99667.25;4439195;32;33499;-82
2023/05/02 05:33:15;;;;;;;0.57;0.57;;;;;;;19.56;38.81;99667.16;4446408;32;34948;-82
2023/05/02 05:35:44;;;;;;;1.75;1.08;;;;;;;19.60;39.05;99675.75;4436224;32;34491;-83
2023/05/02 05:38:13;;;;;;;0.30;0.30;;;;;;;19.29;39.37;99671.19;4445904;32;32806;-84
2023/05/02 05:40:42;;;;;;;0.40;0.40;;;;;;;19.53;39.25;99677.00;4443464;32;33876;-83
2023/05/02 05:43:13;;;;;;;0.30;0.30;;;;;;;19.75;38.80;99680.25;4433810;32;33674;-83
2023/05/02 05:45:42;;;;;;;0.45;0.45;;;;;;;19.10;39.63;99679.94;4439364;32;33157;-84
2023/05/02 05:48:11;;;;;;;0.37;0.37;;;;;;;19.69;39.14;99684.97;4435572;32;34095;-83
2023/05/02 05:50:41;;;;;;;0.43;0.43;;;;;;;20.06;38.74;99683.94;4426157;32;33330;-82
2023/05/02 05:53:10;;;;;;;0.30;0.30;;;;;;;20.45;38.88;99690.66;4433320;32;33649;-85
2023/05/02 05:55:41;;;;;;;0.30;0.30;;;;;;;19.55;39.46;99681.25;4442889;32;34410;-84
2023/05/02 05:58:10;;;;;;;0.62;0.62;;;;;;;20.19;38.45;99689.41;4442166;32;33480;-82
2023/05/02 06:00:41;;;;;;;0.30;0.30;;;;;;;19.92;39.58;99689.09;4446143;32;33982;-82
2023/05/02 06:03:10;;;;;;;0.55;0.55;;;;;;;19.87;39.50;99691.94;4429884;32;33669;-84
2023/05/02 06:05:40;;;;;;;0.30;0.30;;;;;;;19.71;40.43;99685.75;4430919;32;34233;-84
2023/05/02 06:08:10;;;;;;;0.65;0.65;;;;;;;19.22;40.11;99691.66;4433542;32;34091;-82
2023/05/02 06:10:39;;;;;;;0.52;0.40;;;;;;;19.29;40.90;99687.81;4430402;32;33397;-83
2023/05/02 06:13:08;;;;;;;0.30;0.30;;;;;;;19.20;40.39;99693.50;4432853;32;34333;-82
2023/05/02 06:15:37;;;;;;;0.30;0.30;;;;;;;19.24;40.62;99691.59;4444247;32;34148;-83
2023/05/02 06:18:08;;;;;;;0.30;0.30;;;;;;;19.03;41.35;99689.06;4440964;32;33287;-83
2023/05/02 06:20:37;;;;;;;0.68;0.68;;;;;;;19.15;41.00;99701.63;4442600;32;33895;-81
2023/05/02 06:23:06;;;;;;;0.55;0.55;;;;;;;19.00;40.91;99680.50;4445704;32;33880;-83
2023/05/02 06:25:37;;;;;;;0.95;0.77;;;;;;;19.07;40.79;99695.87;4438899;32;32342;-84
2023/05/02 06:28:08;;;;;;;0.30;0.30;;;;;;;18.53;42.43;99693.12;4431977;32;32950;-83
2023/05/02 06:30:37;;;;;;;0.77;0.77;;;;;;;18.19;41.90;99693.78;4450667;32;33572;-84
2023/05/02 06:33:05;;;;;;;0.40;0.40;;;;;;;18.57;41.09;99698.22;4437186;32;34146;-84
2023/05/02 06:35:36;;;;;;;0.43;0.43;;;;;;;18.63;42.69;99709.31;4430614;32;34128;-82
2023/05/02 06:38:04;;;;;;;0.55;0.55;;;;;;;18.78;42.23;99699.91;4436449;32;32644;-82
2023/05/02 06:40:36;;;;;;;0.40;0.40;;;;;;;18.88;41.53;99703.78;4441391;32;33581;-83
2023/05/02 06:43:05;;;;;;;1.12;1.05;;;;;;;18.96;41.96;99699.00;4435736;32;34385;-82
2023/05/02 06:45:34;;;;;;;0.30;0.30;;;;;;;19.35;40.51;99703.28;4437118;32;33816;-82
2023/05/02 06:48:03;;;;;;;0.30;0.30;;;;;;;19.28;41.24;99701.91;4440157;32;32178;-82
2023/05/02 06:50:32;;;;;;;0.40;0.40;;;;;;;19.34;41.77;99708.62;4437416;32;33595;-83
2023/05/02 06:53:04;;;;;;;0.30;0.30;;;;;;;19.34;41.20;99700.72;4444988;32;33633;-82
2023/05/02 06:55:33;;;;;;;0.37;0.37;;;;;;;19.00;42.22;99710.25;4440897;32;34872;-83
2023/05/02 06:58:02;;;;;;;0.52;0.40;;;;;;;19.43;41.28;99705.53;4438729;32;34157;-82
2023/05/02 07:00:31;;;;;;;1.20;1.10;;;;;;;19.47;40.78;99707.06;4445393;32;33848;-81
2023/05/02 07:03:27;;;;;;;0.43;0.43;;;;;;;19.48;41.49;99702.69;4434671;32;34730;-81
2023/05/02 07:05:56;;;;;;;0.30;0.30;;;;;;;19.94;41.28;99698.59;4447849;32;33788;-85
2023/05/02 07:08:26;;;;;;;0.40;0.40;;;;;;;20.48;41.04;99703.66;4440281;32;33297;-85
2023/05/02 07:10:55;;;;;;;0.40;0.40;;;;;;;20.48;40.10;99702.81;4429475;32;33241;-84
2023/05/02 07:13:24;;;;;;;0.30;0.30;;;;;;;20.06;41.30;99709.44;4428985;32;34512;-82
2023/05/02 07:15:53;;;;;;;0.68;0.43;;;;;;;20.38;39.81;99705.94;4434670;32;33605;-83
2023/05/02 07:18:22;;;;;;;0.30;0.30;;;;;;;20.04;40.60;99705.09;4428276;32;33480;-82
2023/05/02 07:20:51;;;;;;;0.40;0.40;;;;;;;20.61;40.15;99701.25;4436201;32;33518;-82
2023/05/02 07:23:20;;;;;;;1.77;0.60;;;;;;;20.34;40.29;99704.41;4442842;32;33641;-83
2023/05/02 07:25:51;;;;;;;0.35;0.35;;;;;;;20.53;40.44;99706.91;4450277;32;34756;-84
2023/05/02 07:28:20;;;;;;;0.35;0.35;;;;;;;20.78;40.94;99701.19;4443005;32;35045;-84
2023/05/02 07:30:48;;;;;;;0.82;0.82;;;;;;;20.96;38.91;99706.38;4444499;32;33359;-82
2023/05/02 07:33:17;;;;;;;0.30;0.30;;;;;;;21.30;39.66;99700.03;4433094;32;34880;-82
2023/05/02 07:35:46;;;;;;;0.60;0.60;;;;;;;20.97;40.17;99705.41;4429003;32;33969;-83
2023/05/02 07:38:15;;;;;;;0.30;0.30;;;;;;;20.96;40.60;99704.56;4446743;32;33384;-82
2023/05/02 07:40:45;;;;;;;2.72;1.50;;;;;;;20.92;40.45;99712.75;4444930;32;33394;-82
2023/05/02 07:43:15;;;;;;;0.30;0.30;;;;;;;21.28;39.85;99710.66;4429664;32;33190;-82
2023/05/02 07:45:45;;;;;;;0.47;0.47;;;;;;;21.30;38.95;99710.59;4428741;32;33901;-83
2023/05/02 07:48:14;;;;;;;0.20;0.20;;;;;;;21.59;39.35;99714.22;4434971;32;33717;-83
2023/05/02 07:50:44;;;;;;;0.30;0.30;;;;;;;21.57;37.99;99716.09;4439998;32;34419;-82
2023/05/02 07:53:12;;;;;;;0.20;0.20;;;;;;;21.18;38.80;99709.50;4439948;32;33796;-81
2023/05/02 07:55:41;;;;;;;0.47;0.47;;;;;;;21.36;39.74;99706.72;4442833;32;34147;-81
2023/05/02 07:58:10;;;;;;;0.35;0.25;;;;;;;20.97;39.17;99714.22;4446064;32;34288;-83
2023/05/02 08:00:40;;;;;;;0.30;0.30;;;;;;;21.19;38.78;99712.97;4441695;32;33398;-85
2023/05/02 08:03:09;;;;;;;0.28;0.28;;;;;;;21.50;38.38;99709.47;4442036;32;33229;-82
2023/05/02 08:05:38;;;;;;;1.85;0.95;;;;;;;21.82;38.68;99712.00;4440646;32;34122;-82
2023/05/02 08:08:06;;;;;;;0.75;0.30;;;;;;;21.86;39.55;99709.09;4429726;32;33114;-82
2023/05/02 08:10:35;;;;;;;0.28;0.28;;;;;;;22.20;38.53;99715.00;4436340;32;33668;-84
2023/05/02 08:13:05;;;;;;;0.40;0.40;;;;;;;21.90;37.50;99710.59;4432472;32;33831;-82
2023/05/02 08:15:34;;;;;;;0.40;0.40;;;;;;;21.84;37.27;99708.34;4441292;32;34600;-81
2023/05/02 08:18:04;;;;;;;0.30;0.30;;;;;;;21.84;38.34;99715.41;4431328;32;34075;-84
2023/05/02 08:20:33;;;;;;;0.55;0.55;;;;;;;22.10;37.32;99719.13;4434796;32;33928;-82
2023/05/02 08:23:02;;;;;;;0.35;0.35;;;;;;;21.85;36.67;99714.47;4430022;32;34462;-82
2023/05/02 08:25:31;;;;;;;0.20;0.20;;;;;;;22.29;37.35;99714.44;4430138;32;33912;-84
2023/05/02 08:27:59;;;;;;;0.35;0.35;;;;;;;22.37;37.92;99713.97;4430737;32;33649;-82
2023/05/02 08:30:30;;;;;;;0.25;0.25;;;;;;;22.22;36.45;99720.22;4444708;32;33572;-84
2023/05/02 08:32:59;;;;;;;0.20;0.20;;;;;;;22.03;37.15;99717.78;4449854;32;33620;-81
2023/05/02 08:35:30;;;;;;;0.20;0.20;;;;;;;22.43;36.75;99716.25;4441437;32;34774;-82
2023/05/02 08:37:59;;;;;;;0.20;0.20;;;;;;;22.20;36.24;99707.09;4432633;32;33946;-83
2023/05/02 08:40:28;;;;;;;0.20;0.20;;;;;;;22.16;37.68;99700.28;4434948;32;34333;-82
2023/05/02 08:43:10;;;;;;;0.45;0.45;;;;;;;22.01;37.47;99706.47;4442605;32;33866;-83
2023/05/02 08:45:40;;;;;;;0.60;0.60;;;;;;;22.44;37.47;99694.16;4442208;32;34073;-82
2023/05/02 08:48:10;;;;;;;0.50;0.50;;;;;;;22.32;36.99;99698.41;4447846;32;33760;-82
2023/05/02 08:50:44;;;;;;;0.22;0.22;;;;;;;22.09;37.50;99705.06;4438741;32;34088;-83
2023/05/02 08:53:14;;;;;;;1.87;1.50;;;;;;;21.52;36.96;99702.31;4436226;32;33929;-82
2023/05/02 08:55:43;;;;;;;0.30;0.30;;;;;;;21.80;38.18;99703.34;4451112;32;34181;-84
2023/05/02 08:58:11;;;;;;;0.20;0.20;;;;;;;21.87;36.97;99700.25;4431420;32;33281;-82
2023/05/02 09:00:45;;;;;;;0.20;0.20;;;;;;;21.72;37.14;99699.38;4430560;32;33995;-83
2023/05/02 09:03:21;;;;;;;0.30;0.30;;;;;;;21.81;37.44;99695.31;4429976;32;34483;-81
2023/05/02 09:05:54;;;;;;;0.40;0.40;;;;;;;21.33;38.67;99693.72;4430264;32;34269;-83
2023/05/02 09:08:23;;;;;;;0.20;0.20;;;;;;;22.37;36.40;99687.53;4435483;32;34322;-81
2023/05/02 09:10:53;;;;;;;0.52;0.40;;;;;;;22.43;37.83;99691.62;4435466;32;33391;-83
2023/05/02 09:13:32;;;;;;;0.20;0.20;;;;;;;22.37;37.77;99692.84;4444358;32;32372;-82
2023/05/02 09:16:02;;;;;;;1.73;1.08;;;;;;;22.93;36.57;99682.25;4441300;32;34407;-82
2023/05/02 09:18:32;;;;;;;0.43;0.35;;;;;;;23.13;34.46;99683.66;4437591;32;33162;-82
2023/05/02 09:21:07;;;;;;;0.10;0.10;;;;;;;23.17;35.35;99688.66;4450759;32;33896;-81
2023/05/02 09:23:38;;;;;;;0.25;0.25;;;;;;;23.05;36.34;99681.53;4439087;32;34026;-83
2023/05/02 09:26:17;;;;;;;0.20;0.20;;;;;;;23.12;36.65;99687.22;4430007;32;33689;-83
2023/05/02 09:28:47;;;;;;;0.50;0.22;;;;;;;23.09;36.24;99690.09;4433427;32;32636;-82
2023/05/02 09:31:19;;;;;;;0.10;0.10;;;;;;;23.69;36.25;99684.31;4450383;32;33583;-84
2023/05/02 09:34:09;;;;;;;0.10;0.10;;;;;;;23.80;36.20;99680.97;4435763;32;34398;-83
2023/05/02 09:36:43;;;;;;;0.20;0.20;;;;;;;23.83;35.63;99691.38;4434408;32;33693;-82
2023/05/02 09:39:13;;;;;;;0.20;0.20;;;;;;;24.17;35.13;99689.06;4440272;32;33587;-82
2023/05/02 09:41:45;;;;;;;0.28;0.28;;;;;;;23.68;33.95;99689.72;4444350;32;34262;-84
2023/05/02 09:44:17;;;;;;;0.20;0.20;;;;;;;24.53;34.39;99690.09;4447885;32;33487;-82
2023/05/02 09:46:49;;;;;;;0.57;0.57;;;;;;;24.57;35.17;99684.44;4440192;32;34062;-82
2023/05/02 09:49:19;;;;;;;0.20;0.20;;;;;;;24.44;34.07;99692.41;4436765;32;32689;-82
2023/05/02 09:51:49;;;;;;;0.98;0.90;;;;;;;24.56;33.78;99688.06;4429583;32;33629;-82
2023/05/02 09:54:36;;;;;;;0.20;0.20;;;;;;;24.26;35.52;99689.25;4429864;32;32927;-82
2023/05/02 09:57:06;;;;;;;0.30;0.30;;;;;;;24.65;35.24;99679.44;4445710;32;34824;-82
2023/05/02 09:59:35;;;;;;;0.10;0.10;;;;;;;24.84;34.13;99678.09;4439058;32;34511;-82
2023/05/02 10:02:06;;;;;;;0.35;0.20;;;;;;;24.79;33.97;99685.56;4444178;32;33122;-82
2023/05/02 10:04:35;;;;;;;0.30;0.30;;;;;;;24.83;32.05;99674.59;4444412;32;34448;-84
2023/05/02 10:07:06;;;;;;;0.25;0.15;;;;;;;24.83;32.99;99684.38;4438617;32;34923;-83
2023/05/02 10:09:36;;;;;;;0.15;0.15;;;;;;;25.20;33.16;99676.41;4438646;32;33276;-82
2023/05/02 10:12:06;;;;;;;0.30;0.30;;;;;;;25.20;33.90;99674.63;4444469;32;33459;-82
2023/05/02 10:14:40;;;;;;;0.10;0.10;;;;;;;25.15;33.77;99683.81;4445460;32;34093;-84
2023/05/02 10:17:12;;;;;;;0.20;0.20;;;;;;;25.22;32.25;99679.78;4444018;32;33936;-83
2023/05/02 10:19:48;;;;;;;0.55;0.52;;;;;;;25.33;31.14;99679.84;4448233;32;33251;-84
2023/05/02 10:22:20;;;;;;;0.43;0.43;;;;;;;25.49;32.52;99680.41;4450397;32;35254;-84
2023/05/02 10:24:49;;;;;;;0.10;0.10;;;;;;;25.41;32.03;99676.62;4429982;32;33536;-81
2023/05/02 10:27:19;;;;;;;0.55;0.52;;;;;;;25.04;32.38;99674.84;4435502;32;33981;-83
2023/05/02 10:29:47;;;;;;;0.20;0.20;;;;;;;25.16;33.53;99674.91;4443412;32;33453;-84
2023/05/02 10:32:18;;;;;;;0.20;0.20;;;;;;;24.84;31.93;99675.44;4449419;32;33712;-83
2023/05/02 10:34:47;;;;;;;0.10;0.10;;;;;;;24.90;34.19;99678.50;4429696;32;35342;-82
2023/05/02 10:37:17;;;;;;;0.15;0.15;;;;;;;24.83;31.99;99679.91;4435495;32;34911;-82
2023/05/02 10:39:47;;;;;;;0.10;0.10;;;;;;;24.67;33.47;99671.41;4430536;32;33962;-82
2023/05/02 10:42:18;;;;;;;0.40;0.40;;;;;;;25.17;33.37;99672.16;4431308;32;35227;-83
2023/05/02 10:44:49;;;;;;;0.22;0.22;;;;;;;25.09;34.05;99672.72;4447803;32;33811;-82
2023/05/02 10:47:21;;;;;;;0.20;0.20;;;;;;;25.37;33.57;99677.78;4430136;32;34540;-82
2023/05/02 10:49:52;;;;;;;0.10;0.10;;;;;;;25.76;33.27;99671.28;4430856;32;34042;-83
2023/05/02 10:52:28;;;;;;;0.10;0.10;;;;;;;25.74;31.39;99663.44;4429095;32;34586;-83
2023/05/02 10:55:21;;;;;;;0.10;0.10;;;;;;;25.31;31.73;99665.84;4434471;32;34650;-82
2023/05/02 10:58:23;;;;;;;0.32;0.22;;;;;;;25.64;31.18;99666.91;4431500;32;34528;-82
2023/05/02 11:00:52;;;;;;;0.10;0.10;;;;;;;25.44;31.96;99665.75;4450848;32;34491;-82
2023/05/02 11:03:55;;;;;;;0.10;0.10;;;;;;;25.69;30.68;99665.59;4443281;32;33832;-84
2023/05/02 11:06:25;;;;;;;0.25;0.25;;;;;;;25.76;31.58;99668.63;4442840;32;33613;-84
2023/05/02 11:08:55;;;;;;;0.10;0.10;;;;;;;25.76;31.84;99663.31;4443509;32;33671;-82
2023/05/02 11:11:42;;;;;;;0.30;0.30;;;;;;;25.66;33.55;99663.19;4443060;32;32818;-84
2023/05/02 11:14:13;;;;;;;0.10;0.10;;;;;;;25.04;32.71;99650.97;4449393;32;34401;-82
2023/05/02 11:17:08;;;;;;;0.47;0.28;;;;;;;25.65;31.51;99653.50;4445731;32;33015;-84
2023/05/02 11:20:24;;;;;;;0.30;0.28;;;;;;;25.50;32.32;99652.88;4442803;32;34372;-84
2023/05/02 11:22:55;;;;;;;0.10;0.10;;;;;;;25.57;32.63;99644.44;4442171;32;33195;-82
2023/05/02 11:25:31;;;;;;;0.10;0.10;;;;;;;25.13;32.28;99644.97;4444689;32;34436;-82
2023/05/02 11:28:03;;;;;;;0.10;0.10;;;;;;;25.95;32.15;99644.16;4443753;32;33990;-81
2023/05/02 11:30:42;;;;;;;0.10;0.10;;;;;;;26.06;31.65;99640.66;4441178;32;34322;-82
2023/05/02 11:33:16;;;;;;;0.10;0.10;;;;;;;25.90;31.64;99644.53;4442048;32;33058;-82
2023/05/02 11:35:49;;;;;;;1.77;0.75;;;;;;;26.46;30.21;99638.34;4436786;32;33596;-82
2023/05/02 11:38:20;;;;;;;0.10;0.10;;;;;;;26.77;31.16;99639.41;4428332;32;34535;-82
2023/05/02 11:40:53;;;;;;;0.10;0.10;;;;;;;26.37;30.14;99639.09;4428255;32;33595;-83
2023/05/02 11:43:26;;;;;;;0.00;0.00;;;;;;;26.79;29.59;99629.47;4429457;32;34166;-83
2023/05/02 11:45:59;;;;;;;0.30;0.30;;;;;;;27.04;30.79;99635.47;4443287;32;33276;-82
2023/05/02 11:48:28;;;;;;;0.10;0.10;;;;;;;26.65;29.53;99632.44;4429985;32;33135;-83
2023/05/02 11:51:01;;;;;;;0.20;0.20;;;;;;;26.51;30.03;99624.69;4432101;32;34032;-82
2023/05/02 11:53:30;;;;;;;0.20;0.20;;;;;;;26.12;29.61;99634.84;4432050;32;33180;-82